Latest Weather Observations for Padthaway

IDS60801

Issued at 11:01 pm CST Tuesday 1 September 2015 (issued every 30 minutes, with the page automatically refreshed every 10 minutes)

About weather observations | Map of weather stations | Latest weather observations for SA | Other Formats
Station Details ID: 026100 Name: PADTHAWAY SOUTH Lat: -36.65 Lon: 140.52 Height: 37.0 m
Data from the previous 72 hours. | See also: Recent months at Padthaway
Date/Time
CST
Temp
°C
App
Temp
°C
Dew
Point
Rel
Hum
%
Delta-T
°C
Wind Press
QNH
hPa
Press
MSL
hPa
Rain
since 9 am
mm
Dir
 
Spd
km/h
Gust
km/h
Spd
kts
Gust
kts
01/11:00pm 14.6 9.7 4.0 49 4.9 NNE 19 28 10 15 - - 0.0
01/10:30pm 14.2 9.1 4.2 51 4.6 NNE 20 28 11 15 - - 0.0
01/10:00pm 14.3 9.9 4.9 53 4.4 NNE 17 20 9 11 - - 0.0
01/09:30pm 14.8 10.6 5.6 54 4.4 NE 17 22 9 12 - - 0.0
01/09:00pm 13.3 10.6 7.3 67 2.9 ENE 11 19 6 10 - - 0.0
01/08:30pm 11.7 10.1 8.7 82 1.5 ESE 7 9 4 5 - - 0.0
01/08:00pm 12.3 10.4 9.0 80 1.7 ESE 9 11 5 6 - - 0.0
01/07:30pm 13.0 11.6 8.9 76 2.1 WSW 6 7 3 4 - - 0.0
01/07:00pm 13.4 11.9 9.1 75 2.2 SSW 7 11 4 6 - - 0.0
01/06:30pm 14.6 13.4 9.4 71 2.7 SSE 6 7 3 4 - - 0.0
01/06:00pm 15.6 13.7 9.1 65 3.3 ENE 9 11 5 6 - - 0.0
01/05:30pm 16.3 14.9 9.5 64 3.5 E 7 9 4 5 - - 0.0
01/05:00pm 16.8 16.7 9.5 62 3.8 CALM 0 0 0 0 - - 0.0
01/04:30pm 17.6 16.0 10.2 62 3.9 WNW 9 11 5 6 - - 0.0
01/04:00pm 18.3 16.1 8.0 51 5.3 NW 9 13 5 7 - - 0.0
01/03:30pm 18.7 15.4 6.5 45 6.1 NNW 13 17 7 9 - - 0.0
01/03:00pm 18.9 14.3 5.4 41 6.6 NNW 19 26 10 14 - - 0.0
01/02:30pm 19.4 15.2 5.5 40 6.8 N 17 24 9 13 - - 0.0
01/02:00pm 19.5 15.0 5.9 41 6.7 N 19 26 10 14 - - 0.0
01/01:30pm 19.3 14.9 5.0 39 6.9 N 17 24 9 13 - - 0.0
01/01:00pm 19.6 14.9 5.3 39 7.0 N 19 28 10 15 - - 0.0
01/12:30pm 19.0 14.2 4.4 38 7.0 N 19 28 10 15 - - 0.0
01/12:00pm 18.9 14.7 5.7 42 6.5 N 17 24 9 13 - - 0.0
01/11:30am 17.0 12.8 5.9 48 5.4 NNE 17 20 9 11 - - 0.0
01/11:00am 14.8 11.5 4.8 51 4.7 NNE 11 15 6 8 - - 0.0
01/10:30am 13.5 9.4 4.6 55 4.1 NNE 15 19 8 10 - - 0.0
01/10:00am 12.5 8.8 4.7 59 3.6 NNE 13 20 7 11 - - 0.0
01/09:30am 12.3 7.8 4.0 57 3.7 NE 17 20 9 11 - - 0.0
01/09:00am 11.3 5.8 4.1 61 3.2 NE 22 32 12 17 - - 0.0
01/08:30am 9.6 3.7 3.8 67 2.5 NNE 24 32 13 17 - - 0.0
01/08:00am 8.2 2.9 2.9 69 2.2 NNE 20 32 11 17 - - 0.0
01/07:30am 7.1 1.7 2.6 73 1.9 NNE 20 30 11 16 - - 0.0
01/07:00am 6.8 1.4 2.5 74 1.8 NE 20 30 11 16 - - 0.0
01/06:30am 6.6 1.2 2.5 75 1.7 NE 20 32 11 17 - - 0.0
01/06:00am 6.6 0.8 2.5 75 1.7 NE 22 33 12 18 - - 0.0
01/05:30am 6.5 0.0 2.4 75 1.7 NE 26 39 14 21 - - 0.0
01/05:00am 6.8 1.0 2.5 74 1.8 NE 22 28 12 15 - - 0.0
01/04:30am 7.1 1.4 2.8 74 1.8 NE 22 33 12 18 - - 0.0
01/04:00am 6.7 1.3 2.6 75 1.7 NE 20 28 11 15 - - 0.0
01/03:30am 6.4 1.2 2.5 76 1.6 NE 19 28 10 15 - - 0.0
01/03:00am 6.5 0.8 2.6 76 1.6 NE 22 33 12 18 - - 0.0
01/02:30am 6.4 0.3 2.5 76 1.6 NE 24 33 13 18 - - 0.0
01/02:00am 6.9 1.2 3.0 76 1.6 NE 22 32 12 17 - - 0.0
01/01:30am 7.0 1.4 3.3 77 1.6 NE 22 32 12 17 - - 0.0
01/01:00am 7.1 1.9 3.3 77 1.6 ENE 20 26 11 14 - - 0.0
01/12:30am 7.0 2.8 3.6 79 1.4 ENE 15 20 8 11 - - 0.0
01/12:00am 6.5 3.4 3.7 82 1.2 E 9 17 5 9 - - 0.0
 
Date/Time
CST
Temp
°C
App
Temp
°C
Dew
Point
Rel
Hum
%
Delta-T
°C
Wind Press
QNH
hPa
Press
MSL
hPa
Rain
since 9 am
mm
Dir
 
Spd
km/h
Gust
km/h
Spd
kts
Gust
kts
31/11:30pm 6.3 3.1 3.1 80 1.3 ESE 9 11 5 6 - - 0.0
31/11:00pm 6.0 2.8 3.3 83 1.1 E 9 13 5 7 - - 0.0
31/10:30pm 4.2 0.9 2.4 88 0.7 ENE 9 11 5 6 - - 0.0
31/10:00pm 3.8 0.4 2.0 88 0.7 ESE 9 11 5 6 - - 0.0
31/09:30pm 3.5 0.5 1.7 88 0.7 ESE 7 9 4 5 - - 0.0
31/09:00pm 4.5 1.2 2.5 87 0.8 SE 9 9 5 5 - - 0.0
31/08:30pm 5.2 3.7 3.2 87 0.8 CALM 0 6 0 3 - - 0.0
31/08:00pm 5.3 2.1 2.8 84 1.0 ESE 9 11 5 6 - - 0.0
31/07:30pm 6.6 3.2 3.8 82 1.2 SE 11 11 6 6 - - 0.0
31/07:00pm 6.8 3.7 3.6 80 1.4 SE 9 11 5 6 - - 0.0
31/06:30pm 8.1 5.1 3.9 75 1.8 SSE 9 11 5 6 - - 0.0
31/06:00pm 10.1 7.1 4.3 67 2.6 SSE 9 9 5 5 - - 0.0
31/05:30pm 11.9 9.7 5.1 63 3.1 S 6 7 3 4 - - 0.0
31/05:00pm 12.8 10.2 4.3 56 3.9 SSW 7 9 4 5 - - 0.0
31/04:30pm 13.2 10.8 4.1 54 4.1 SSW 6 13 3 7 - - 0.0
31/04:00pm 13.8 11.2 4.1 52 4.4 SSW 7 11 4 6 - - 0.0
31/03:30pm 13.2 9.7 3.3 51 4.4 SSE 11 17 6 9 - - 0.0
31/03:00pm 13.6 10.3 4.5 54 4.2 SSE 11 15 6 8 - - 0.0
31/02:30pm 12.5 9.0 3.7 55 3.9 S 11 17 6 9 - - 0.0
31/02:00pm 13.6 10.7 4.5 54 4.2 SSW 9 19 5 10 - - 0.0
31/01:30pm 13.5 10.4 3.6 51 4.5 SSW 9 19 5 10 - - 0.0
31/01:00pm 13.4 11.0 5.1 57 3.9 SSW 7 13 4 7 - - 0.0
31/12:30pm 13.5 11.4 3.8 52 4.4 SE 4 11 2 6 - - 0.0
31/12:00pm 13.0 10.6 5.2 59 3.6 SE 7 11 4 6 - - 0.0
31/11:30am 11.9 9.9 4.4 60 3.4 NNE 4 9 2 5 - - 0.0
31/11:00am 12.0 9.2 5.2 63 3.1 NE 9 15 5 8 - - 0.0
31/10:30am 11.0 7.4 5.1 67 2.7 NNE 13 17 7 9 - - 0.0
31/10:00am 9.7 6.5 4.9 72 2.2 NE 11 15 6 8 - - 0.0
31/09:30am 8.8 6.0 5.0 77 1.7 ENE 9 15 5 8 - - 0.0
31/09:00am 7.8 4.6 5.1 83 1.2 E 11 19 6 10 - - 0.0
31/08:30am 5.8 4.8 5.7 99 0.0 CALM 0 0 0 0 - - 0.0
31/08:00am 3.9 2.5 3.8 99 0.0 CALM 0 0 0 0 - - 0.0
31/07:30am 2.5 0.5 2.4 99 0.0 SSE 2 6 1 3 - - 0.0
31/07:00am 1.3 -0.5 1.0 98 0.1 CALM 0 0 0 0 - - 0.0
31/06:30am 0.3 -3.4 -0.1 97 0.1 SE 9 11 5 6 - - 0.0
31/06:00am -0.1 -2.2 -0.5 97 0.1 CALM 0 0 0 0 - - 0.0
31/05:30am -0.7 -3.6 -1.1 97 0.1 SE 4 7 2 4 - - 0.0
31/05:00am -0.7 -4.6 -1.3 96 0.2 SSE 9 9 5 5 - - 0.0
31/04:30am -0.6 -3.9 -1.2 96 0.2 SE 6 7 3 4 - - 0.0
31/04:00am -0.5 -3.8 -1.1 96 0.2 SSE 6 7 3 4 - - 0.0
31/03:30am -0.6 -2.8 -1.2 96 0.2 CALM 0 0 0 0 - - 0.0
31/03:00am -0.5 -2.6 -1.1 96 0.2 CALM 0 0 0 0 - - 0.0
31/02:30am 0.1 -2.3 -0.5 96 0.2 SSE 2 7 1 4 - - 0.0
31/02:00am 0.2 -2.6 -0.4 96 0.2 SE 4 6 2 3 - - 0.0
31/01:30am 0.7 -2.6 0.1 96 0.2 SE 7 9 4 5 - - 0.0
31/01:00am 0.7 -1.3 0.0 95 0.3 CALM 0 0 0 0 - - 0.0
31/12:30am 0.8 -1.9 0.1 95 0.3 SE 4 6 2 3 - - 0.0
31/12:00am 1.4 -0.5 0.7 95 0.3 CALM 0 0 0 0 - - 0.0
 
Date/Time
CST
Temp
°C
App
Temp
°C
Dew
Point
Rel
Hum
%
Delta-T
°C
Wind Press
QNH
hPa
Press
MSL
hPa
Rain
since 9 am
mm
Dir
 
Spd
km/h
Gust
km/h
Spd
kts
Gust
kts
30/11:30pm 1.8 -0.4 0.9 94 0.3 SE 2 6 1 3 - - 0.0
30/11:00pm 2.2 -0.4 1.2 93 0.4 ENE 4 9 2 5 - - 0.0
30/10:30pm 3.0 0.9 1.8 92 0.5 NE 2 6 1 3 - - 0.0
30/10:00pm 3.6 2.0 2.4 92 0.5 CALM 0 0 0 0 - - 0.0
30/09:30pm 3.9 2.3 2.7 92 0.5 CALM 0 0 0 0 - - 0.0
30/09:00pm 4.4 2.9 3.1 91 0.5 CALM 0 0 0 0 - - 0.0
30/08:30pm 5.0 3.5 3.2 88 0.7 CALM 0 0 0 0 - - 0.0
30/08:00pm 6.4 4.3 3.9 84 1.1 N 4 7 2 4 - - 0.0
30/07:30pm 7.0 5.7 4.3 83 1.2 CALM 0 0 0 0 - - 0.0
30/07:00pm 7.7 4.8 4.8 82 1.3 WNW 9 13 5 7 - - 0.0
30/06:30pm 8.1 5.2 4.9 80 1.4 WNW 9 11 5 6 - - 0.0
30/06:00pm 9.6 7.3 5.8 77 1.7 WNW 7 9 4 5 - - 0.0
30/05:30pm 11.1 8.9 6.0 71 2.4 WNW 7 9 4 5 - - 0.0
30/05:00pm 12.1 11.0 5.0 62 3.3 CALM 0 0 0 0 - - 0.0
30/04:30pm 11.6 10.5 5.0 64 3.0 CALM 0 0 0 0 - - 0.0
30/04:00pm 11.6 9.3 5.0 64 3.0 E 6 11 3 6 - - 0.0
30/03:30pm 11.6 10.2 5.7 67 2.7 N 2 9 1 5 - - 0.0
30/03:00pm 11.4 9.2 5.3 66 2.8 SSW 6 11 3 6 - - 0.0
30/02:30pm 11.0 8.7 4.7 65 2.9 SSE 6 7 3 4 - - 0.0
30/02:00pm 11.0 9.4 6.2 72 2.2 SSE 4 9 2 5 - - 0.0
30/01:30pm 10.8 8.6 6.0 72 2.2 S 7 11 4 6 - - 0.0
30/01:00pm 10.9 7.8 5.7 70 2.4 ESE 11 15 6 8 - - 0.0
30/12:30pm 10.5 8.2 5.7 72 2.2 E 7 11 4 6 - - 0.0
30/12:00pm 10.3 7.7 5.9 74 2.0 ESE 9 15 5 8 - - 0.0
30/11:30am 10.2 6.4 5.8 74 2.0 SE 15 20 8 11 - - 0.0
30/11:00am 10.1 6.8 6.3 77 1.8 SE 13 19 7 10 - - 0.0
30/10:30am 10.0 7.0 6.2 77 1.8 ESE 11 15 6 8 - - 0.0
30/10:00am 9.6 5.9 6.1 79 1.6 ESE 15 20 8 11 - - 0.0
30/09:30am 9.7 6.5 6.8 82 1.4 SSE 13 17 7 9 - - 0.0
30/09:00am 8.6 5.3 6.4 86 1.0 SE 13 17 7 9 - - 0.0
30/08:30am 7.3 4.5 6.9 97 0.2 SE 11 15 6 8 - - 0.0
30/08:00am 5.8 4.1 5.7 99 0.0 SSE 4 7 2 4 - - 0.0
30/07:30am 4.9 3.7 4.8 99 0.0 CALM 0 0 0 0 - - 0.0
30/07:00am 3.4 2.0 3.3 99 0.0 CALM 0 0 0 0 - - 0.0
30/06:30am 2.4 0.8 2.3 99 0.0 CALM 0 0 0 0 - - 0.0
30/06:00am 2.7 0.8 2.6 99 0.0 S 2 6 1 3 - - 0.0
30/05:30am 1.9 -0.9 1.8 99 0.0 SSE 6 9 3 5 - - 0.0
30/05:00am 1.7 -1.2 1.6 99 0.0 SSE 6 9 3 5 - - 0.0
30/04:30am 1.1 -2.1 1.0 99 0.0 SE 7 11 4 6 - - 0.0
30/04:00am 1.4 -1.7 1.3 99 0.0 SE 7 9 4 5 - - 0.0
30/03:30am 1.3 -2.2 1.0 98 0.1 SE 9 11 5 6 - - 0.0
30/03:00am 1.6 -1.9 1.3 98 0.1 SE 9 11 5 6 - - 0.0
30/02:30am 2.4 -1.7 2.1 98 0.1 SSE 13 15 7 8 - - 0.0
30/02:00am 2.3 -1.8 2.0 98 0.1 SE 13 13 7 7 - - 0.0
30/01:30am 1.9 -1.9 1.5 97 0.2 SE 11 13 6 7 - - 0.0
30/01:00am 2.8 -0.9 2.4 97 0.2 SE 11 13 6 7 - - 0.0
30/12:30am 2.5 -1.3 1.9 96 0.2 SE 11 13 6 7 - - 0.0
30/12:00am 2.2 -2.0 1.5 95 0.3 SE 13 13 7 7 - - 0.0
 
Date/Time
CST
Temp
°C
App
Temp
°C
Dew
Point
Rel
Hum
%
Delta-T
°C
Wind Press
QNH
hPa
Press
MSL
hPa
Rain
since 9 am
mm
Dir
 
Spd
km/h
Gust
km/h
Spd
kts
Gust
kts
29/11:30pm 2.8 -0.9 2.1 95 0.3 SE 11 13 6 7 - - 0.0

Other Formats:

Comma delimited format used in spreadsheet applications
http://www.bom.gov.au/fwo/IDS60801/IDS60801.95823.axf

JavaScript Object Notation format (JSON) in row-major order
http://www.bom.gov.au/fwo/IDS60801/IDS60801.95823.json